sensor_id;sensor_type;location;lat;lon;timestamp;pressure;altitude;pressure_sealevel;temperature;humidity
35023;BME280;21214;44.912;8.204;2023-02-18T00:00:56;100965.47;;;5.62;100.00
35023;BME280;21214;44.912;8.204;2023-02-18T00:03:22;100963.38;;;5.34;100.00
35023;BME280;21214;44.912;8.204;2023-02-18T00:05:48;100968.25;;;5.42;100.00
35023;BME280;21214;44.912;8.204;2023-02-18T00:08:13;100968.63;;;5.51;100.00
35023;BME280;21214;44.912;8.204;2023-02-18T00:10:41;100965.22;;;5.49;100.00
35023;BME280;21214;44.912;8.204;2023-02-18T00:13:06;100965.16;;;5.51;100.00
35023;BME280;21214;44.912;8.204;2023-02-18T00:15:35;100959.13;;;5.31;100.00
35023;BME280;21214;44.912;8.204;2023-02-18T00:18:01;100962.53;;;4.98;100.00
35023;BME280;21214;44.912;8.204;2023-02-18T00:20:26;100955.72;;;5.12;100.00
35023;BME280;21214;44.912;8.204;2023-02-18T00:22:52;100957.28;;;5.16;100.00
35023;BME280;21214;44.912;8.204;2023-02-18T00:25:17;100956.03;;;5.06;100.00
35023;BME280;21214;44.912;8.204;2023-02-18T00:27:42;100949.09;;;5.05;100.00
35023;BME280;21214;44.912;8.204;2023-02-18T00:30:08;100952.09;;;5.15;100.00
35023;BME280;21214;44.912;8.204;2023-02-18T00:32:34;100955.44;;;5.18;100.00
35023;BME280;21214;44.912;8.204;2023-02-18T00:34:59;100956.81;;;5.25;100.00
35023;BME280;21214;44.912;8.204;2023-02-18T00:37:24;100947.88;;;5.12;100.00
35023;BME280;21214;44.912;8.204;2023-02-18T00:39:50;100958.16;;;4.98;100.00
35023;BME280;21214;44.912;8.204;2023-02-18T00:42:15;100947.97;;;4.92;100.00
35023;BME280;21214;44.912;8.204;2023-02-18T00:44:41;100945.09;;;4.79;100.00
35023;BME280;21214;44.912;8.204;2023-02-18T00:47:06;100945.44;;;4.72;100.00
35023;BME280;21214;44.912;8.204;2023-02-18T00:49:32;100938.19;;;4.41;100.00
35023;BME280;21214;44.912;8.204;2023-02-18T00:51:57;100945.31;;;4.37;100.00
35023;BME280;21214;44.912;8.204;2023-02-18T00:54:23;100941.78;;;4.38;100.00
35023;BME280;21214;44.912;8.204;2023-02-18T00:56:49;100935.13;;;4.31;100.00
35023;BME280;21214;44.912;8.204;2023-02-18T00:59:15;100935.28;;;4.28;100.00
35023;BME280;21214;44.912;8.204;2023-02-18T01:01:41;100927.09;;;4.17;100.00
35023;BME280;21214;44.912;8.204;2023-02-18T01:04:06;100929.59;;;4.19;100.00
35023;BME280;21214;44.912;8.204;2023-02-18T01:06:32;100936.38;;;4.04;100.00
35023;BME280;21214;44.912;8.204;2023-02-18T01:08:57;100938.09;;;4.05;100.00
35023;BME280;21214;44.912;8.204;2023-02-18T01:11:23;100937.81;;;4.11;100.00
35023;BME280;21214;44.912;8.204;2023-02-18T01:13:49;100936.75;;;4.15;100.00
35023;BME280;21214;44.912;8.204;2023-02-18T01:16:14;100931.19;;;4.23;100.00
35023;BME280;21214;44.912;8.204;2023-02-18T01:18:41;100923.25;;;4.24;100.00
35023;BME280;21214;44.912;8.204;2023-02-18T01:21:06;100926.19;;;4.18;100.00
35023;BME280;21214;44.912;8.204;2023-02-18T01:23:35;100918.34;;;4.18;100.00
35023;BME280;21214;44.912;8.204;2023-02-18T01:26:00;100924.88;;;4.08;100.00
35023;BME280;21214;44.912;8.204;2023-02-18T01:28:26;100922.41;;;4.05;100.00
35023;BME280;21214;44.912;8.204;2023-02-18T01:30:51;100922.13;;;4.11;100.00
35023;BME280;21214;44.912;8.204;2023-02-18T01:33:17;100924.66;;;4.12;100.00
35023;BME280;21214;44.912;8.204;2023-02-18T01:35:43;100921.97;;;4.14;100.00
35023;BME280;21214;44.912;8.204;2023-02-18T01:38:08;100915.78;;;4.17;100.00
35023;BME280;21214;44.912;8.204;2023-02-18T01:40:34;100912.16;;;4.19;100.00
35023;BME280;21214;44.912;8.204;2023-02-18T01:43:00;100901.16;;;4.12;100.00
35023;BME280;21214;44.912;8.204;2023-02-18T01:47:57;100900.44;;;4.09;100.00
35023;BME280;21214;44.912;8.204;2023-02-18T01:50:22;100899.81;;;4.04;100.00
35023;BME280;21214;44.912;8.204;2023-02-18T01:52:48;100893.03;;;4.00;100.00
35023;BME280;21214;44.912;8.204;2023-02-18T01:55:13;100904.41;;;3.99;100.00
35023;BME280;21214;44.912;8.204;2023-02-18T01:57:41;100900.34;;;3.92;100.00
35023;BME280;21214;44.912;8.204;2023-02-18T02:00:09;100901.91;;;3.96;100.00
35023;BME280;21214;44.912;8.204;2023-02-18T02:02:41;100897.38;;;3.81;100.00
35023;BME280;21214;44.912;8.204;2023-02-18T02:05:08;100903.50;;;3.59;100.00
35023;BME280;21214;44.912;8.204;2023-02-18T02:07:35;100897.66;;;3.34;100.00
35023;BME280;21214;44.912;8.204;2023-02-18T02:10:01;100892.44;;;3.34;100.00
35023;BME280;21214;44.912;8.204;2023-02-18T02:15:26;100888.78;;;3.38;100.00
35023;BME280;21214;44.912;8.204;2023-02-18T02:28:22;100887.06;;;3.37;100.00
35023;BME280;21214;44.912;8.204;2023-02-18T02:33:49;100885.13;;;3.22;100.00
35023;BME280;21214;44.912;8.204;2023-02-18T02:36:30;100890.47;;;3.19;100.00
35023;BME280;21214;44.912;8.204;2023-02-18T02:39:16;100890.56;;;2.96;100.00
35023;BME280;21214;44.912;8.204;2023-02-18T02:44:21;100886.25;;;2.95;100.00
35023;BME280;21214;44.912;8.204;2023-02-18T02:46:51;100880.72;;;3.02;100.00
35023;BME280;21214;44.912;8.204;2023-02-18T02:49:32;100878.84;;;3.06;100.00
35023;BME280;21214;44.912;8.204;2023-02-18T02:52:05;100875.16;;;3.11;100.00
35023;BME280;21214;44.912;8.204;2023-02-18T02:54:32;100879.13;;;3.20;100.00
35023;BME280;21214;44.912;8.204;2023-02-18T02:57:06;100875.59;;;3.21;100.00
35023;BME280;21214;44.912;8.204;2023-02-18T02:59:33;100876.31;;;3.24;100.00
35023;BME280;21214;44.912;8.204;2023-02-18T03:14:28;100870.31;;;3.22;100.00
35023;BME280;21214;44.912;8.204;2023-02-18T03:17:00;100865.97;;;3.23;100.00
35023;BME280;21214;44.912;8.204;2023-02-18T03:22:00;100872.44;;;2.93;100.00
35023;BME280;21214;44.912;8.204;2023-02-18T03:24:31;100880.00;;;2.99;100.00
35023;BME280;21214;44.912;8.204;2023-02-18T03:26:59;100882.88;;;3.13;100.00
35023;BME280;21214;44.912;8.204;2023-02-18T03:29:26;100873.22;;;2.73;100.00
35023;BME280;21214;44.912;8.204;2023-02-18T03:31:54;100862.44;;;2.60;100.00
35023;BME280;21214;44.912;8.204;2023-02-18T03:34:24;100863.78;;;2.48;100.00
35023;BME280;21214;44.912;8.204;2023-02-18T03:36:50;100865.97;;;2.59;100.00
35023;BME280;21214;44.912;8.204;2023-02-18T03:39:17;100870.03;;;2.66;100.00
35023;BME280;21214;44.912;8.204;2023-02-18T03:41:43;100876.13;;;2.65;100.00
35023;BME280;21214;44.912;8.204;2023-02-18T03:44:09;100870.34;;;2.59;100.00
35023;BME280;21214;44.912;8.204;2023-02-18T03:46:35;100866.31;;;2.50;100.00
35023;BME280;21214;44.912;8.204;2023-02-18T03:49:02;100866.03;;;2.58;100.00
35023;BME280;21214;44.912;8.204;2023-02-18T03:51:28;100866.47;;;2.69;100.00
35023;BME280;21214;44.912;8.204;2023-02-18T03:53:53;100868.69;;;2.56;100.00
35023;BME280;21214;44.912;8.204;2023-02-18T03:56:19;100863.28;;;2.61;100.00
35023;BME280;21214;44.912;8.204;2023-02-18T03:58:44;100869.72;;;2.52;100.00
35023;BME280;21214;44.912;8.204;2023-02-18T04:01:09;100883.78;;;2.48;100.00
35023;BME280;21214;44.912;8.204;2023-02-18T04:03:35;100887.31;;;2.47;100.00
35023;BME280;21214;44.912;8.204;2023-02-18T04:06:00;100885.22;;;2.55;100.00
35023;BME280;21214;44.912;8.204;2023-02-18T04:08:26;100887.66;;;2.60;100.00
35023;BME280;21214;44.912;8.204;2023-02-18T04:10:51;100891.06;;;2.40;100.00
35023;BME280;21214;44.912;8.204;2023-02-18T04:13:16;100879.25;;;2.30;100.00
35023;BME280;21214;44.912;8.204;2023-02-18T04:15:42;100884.56;;;2.28;100.00
35023;BME280;21214;44.912;8.204;2023-02-18T04:18:08;100881.88;;;2.30;100.00
35023;BME280;21214;44.912;8.204;2023-02-18T04:20:33;100868.84;;;2.30;100.00
35023;BME280;21214;44.912;8.204;2023-02-18T04:22:59;100868.50;;;2.39;100.00
35023;BME280;21214;44.912;8.204;2023-02-18T04:25:24;100875.66;;;2.34;100.00
35023;BME280;21214;44.912;8.204;2023-02-18T04:27:49;100881.34;;;2.43;100.00
35023;BME280;21214;44.912;8.204;2023-02-18T04:30:15;100885.00;;;2.39;100.00
35023;BME280;21214;44.912;8.204;2023-02-18T04:32:40;100883.34;;;2.37;100.00
35023;BME280;21214;44.912;8.204;2023-02-18T04:35:06;100886.56;;;2.43;100.00
35023;BME280;21214;44.912;8.204;2023-02-18T04:37:31;100889.97;;;2.45;100.00
35023;BME280;21214;44.912;8.204;2023-02-18T04:39:56;100887.69;;;2.36;100.00
35023;BME280;21214;44.912;8.204;2023-02-18T04:42:22;100893.44;;;2.23;100.00
35023;BME280;21214;44.912;8.204;2023-02-18T04:44:47;100898.53;;;2.26;100.00
35023;BME280;21214;44.912;8.204;2023-02-18T04:47:13;100890.28;;;2.15;100.00
35023;BME280;21214;44.912;8.204;2023-02-18T04:49:39;100890.50;;;2.09;100.00
35023;BME280;21214;44.912;8.204;2023-02-18T04:52:04;100897.84;;;1.97;100.00
35023;BME280;21214;44.912;8.204;2023-02-18T04:54:29;100895.72;;;2.09;100.00
35023;BME280;21214;44.912;8.204;2023-02-18T04:56:55;100894.41;;;2.20;100.00
35023;BME280;21214;44.912;8.204;2023-02-18T04:59:20;100878.06;;;2.17;100.00
35023;BME280;21214;44.912;8.204;2023-02-18T05:01:45;100881.81;;;2.31;100.00
35023;BME280;21214;44.912;8.204;2023-02-18T05:04:11;100889.94;;;2.24;100.00
35023;BME280;21214;44.912;8.204;2023-02-18T05:06:36;100888.69;;;2.11;100.00
35023;BME280;21214;44.912;8.204;2023-02-18T05:09:04;100894.88;;;1.83;100.00
35023;BME280;21214;44.912;8.204;2023-02-18T05:11:29;100893.78;;;1.90;100.00
35023;BME280;21214;44.912;8.204;2023-02-18T05:13:55;100890.50;;;1.85;100.00
35023;BME280;21214;44.912;8.204;2023-02-18T05:16:20;100893.59;;;1.95;100.00
35023;BME280;21214;44.912;8.204;2023-02-18T05:18:45;100893.59;;;1.95;100.00
35023;BME280;21214;44.912;8.204;2023-02-18T05:21:11;100893.28;;;2.04;100.00
35023;BME280;21214;44.912;8.204;2023-02-18T05:23:36;100880.22;;;2.05;100.00
35023;BME280;21214;44.912;8.204;2023-02-18T05:26:01;100881.88;;;2.06;100.00
35023;BME280;21214;44.912;8.204;2023-02-18T05:28:27;100880.47;;;2.21;100.00
35023;BME280;21214;44.912;8.204;2023-02-18T05:30:52;100883.56;;;2.31;100.00
35023;BME280;21214;44.912;8.204;2023-02-18T05:33:17;100883.28;;;2.38;100.00
35023;BME280;21214;44.912;8.204;2023-02-18T05:35:43;100887.59;;;2.39;100.00
35023;BME280;21214;44.912;8.204;2023-02-18T05:38:08;100885.50;;;2.26;100.00
35023;BME280;21214;44.912;8.204;2023-02-18T05:40:34;100886.94;;;2.11;100.00
35023;BME280;21214;44.912;8.204;2023-02-18T05:42:59;100907.09;;;2.06;100.00
35023;BME280;21214;44.912;8.204;2023-02-18T05:45:24;100906.91;;;1.87;100.00
35023;BME280;21214;44.912;8.204;2023-02-18T05:47:50;100905.22;;;1.86;100.00
35023;BME280;21214;44.912;8.204;2023-02-18T05:50:15;100903.50;;;1.85;100.00
35023;BME280;21214;44.912;8.204;2023-02-18T05:52:41;100906.28;;;1.56;100.00
35023;BME280;21214;44.912;8.204;2023-02-18T05:55:06;100907.19;;;1.55;100.00
35023;BME280;21214;44.912;8.204;2023-02-18T05:57:31;100910.63;;;1.55;100.00
35023;BME280;21214;44.912;8.204;2023-02-18T05:59:57;100909.47;;;1.64;100.00
35023;BME280;21214;44.912;8.204;2023-02-18T06:02:22;100915.25;;;1.72;100.00
35023;BME280;21214;44.912;8.204;2023-02-18T06:04:47;100922.75;;;1.81;100.00
35023;BME280;21214;44.912;8.204;2023-02-18T06:07:13;100922.53;;;1.87;100.00
35023;BME280;21214;44.912;8.204;2023-02-18T06:09:38;100920.47;;;1.95;100.00
35023;BME280;21214;44.912;8.204;2023-02-18T06:12:03;100917.09;;;1.93;100.00
35023;BME280;21214;44.912;8.204;2023-02-18T06:14:29;100926.13;;;1.83;100.00
35023;BME280;21214;44.912;8.204;2023-02-18T06:16:54;100925.81;;;1.68;100.00
35023;BME280;21214;44.912;8.204;2023-02-18T06:19:20;100919.25;;;1.82;100.00
35023;BME280;21214;44.912;8.204;2023-02-18T06:21:45;100926.25;;;1.80;100.00
35023;BME280;21214;44.912;8.204;2023-02-18T06:24:10;100922.63;;;1.84;100.00
35023;BME280;21214;44.912;8.204;2023-02-18T06:26:36;100926.34;;;1.77;100.00
35023;BME280;21214;44.912;8.204;2023-02-18T06:29:01;100921.72;;;1.85;100.00
35023;BME280;21214;44.912;8.204;2023-02-18T06:31:27;100927.81;;;1.84;100.00
35023;BME280;21214;44.912;8.204;2023-02-18T06:33:53;100924.31;;;1.85;100.00
35023;BME280;21214;44.912;8.204;2023-02-18T06:36:18;100924.75;;;1.73;100.00
35023;BME280;21214;44.912;8.204;2023-02-18T06:38:43;100922.19;;;1.72;100.00
35023;BME280;21214;44.912;8.204;2023-02-18T06:41:09;100933.59;;;1.69;100.00
35023;BME280;21214;44.912;8.204;2023-02-18T06:43:35;100931.66;;;1.74;100.00
35023;BME280;21214;44.912;8.204;2023-02-18T06:46:01;100928.16;;;1.75;100.00
35023;BME280;21214;44.912;8.204;2023-02-18T06:48:27;100928.03;;;1.53;100.00
35023;BME280;21214;44.912;8.204;2023-02-18T06:50:52;100928.81;;;1.57;100.00
35023;BME280;21214;44.912;8.204;2023-02-18T06:53:17;100933.25;;;1.53;100.00
35023;BME280;21214;44.912;8.204;2023-02-18T06:55:43;100932.31;;;1.56;100.00
35023;BME280;21214;44.912;8.204;2023-02-18T06:58:11;100932.09;;;1.62;100.00
35023;BME280;21214;44.912;8.204;2023-02-18T07:00:37;100935.59;;;1.61;100.00
35023;BME280;21214;44.912;8.204;2023-02-18T07:03:03;100936.06;;;1.72;100.00
35023;BME280;21214;44.912;8.204;2023-02-18T07:05:29;100935.94;;;1.77;100.00
35023;BME280;21214;44.912;8.204;2023-02-18T07:07:54;100938.66;;;1.72;100.00
35023;BME280;21214;44.912;8.204;2023-02-18T07:10:20;100936.44;;;1.86;100.00
35023;BME280;21214;44.912;8.204;2023-02-18T07:12:45;100934.44;;;1.94;100.00
35023;BME280;21214;44.912;8.204;2023-02-18T07:15:10;100929.94;;;1.98;100.00
35023;BME280;21214;44.912;8.204;2023-02-18T07:17:36;100944.22;;;2.11;100.00
35023;BME280;21214;44.912;8.204;2023-02-18T07:20:02;100947.47;;;2.18;100.00
35023;BME280;21214;44.912;8.204;2023-02-18T07:22:27;100952.19;;;2.30;100.00
35023;BME280;21214;44.912;8.204;2023-02-18T07:24:53;100953.72;;;2.12;100.00
35023;BME280;21214;44.912;8.204;2023-02-18T07:27:19;100949.13;;;2.42;100.00
35023;BME280;21214;44.912;8.204;2023-02-18T07:29:44;100947.81;;;2.54;100.00
35023;BME280;21214;44.912;8.204;2023-02-18T07:32:11;100952.38;;;2.48;100.00
35023;BME280;21214;44.912;8.204;2023-02-18T07:34:37;100955.25;;;2.64;100.00
35023;BME280;21214;44.912;8.204;2023-02-18T07:37:03;100955.13;;;2.67;100.00
35023;BME280;21214;44.912;8.204;2023-02-18T07:39:33;100952.28;;;2.73;100.00
35023;BME280;21214;44.912;8.204;2023-02-18T07:41:59;100961.25;;;2.66;100.00
35023;BME280;21214;44.912;8.204;2023-02-18T07:44:24;100966.81;;;2.57;100.00
35023;BME280;21214;44.912;8.204;2023-02-18T07:46:51;100959.47;;;2.45;100.00
35023;BME280;21214;44.912;8.204;2023-02-18T07:49:17;100956.72;;;2.48;100.00
35023;BME280;21214;44.912;8.204;2023-02-18T07:51:42;100956.88;;;2.67;100.00
35023;BME280;21214;44.912;8.204;2023-02-18T07:54:08;100957.72;;;2.67;100.00
35023;BME280;21214;44.912;8.204;2023-02-18T07:56:33;100964.78;;;2.87;100.00
35023;BME280;21214;44.912;8.204;2023-02-18T07:58:58;100965.16;;;3.00;100.00
35023;BME280;21214;44.912;8.204;2023-02-18T08:01:24;100959.81;;;3.03;100.00
35023;BME280;21214;44.912;8.204;2023-02-18T08:03:49;100959.22;;;3.18;100.00
35023;BME280;21214;44.912;8.204;2023-02-18T08:06:18;100952.44;;;3.12;100.00
35023;BME280;21214;44.912;8.204;2023-02-18T08:08:44;100961.38;;;3.28;100.00
35023;BME280;21214;44.912;8.204;2023-02-18T08:11:10;100959.22;;;3.38;100.00
35023;BME280;21214;44.912;8.204;2023-02-18T08:13:35;100959.78;;;3.46;100.00
35023;BME280;21214;44.912;8.204;2023-02-18T08:16:00;100958.28;;;3.61;100.00
35023;BME280;21214;44.912;8.204;2023-02-18T08:18:26;100963.97;;;3.70;100.00
35023;BME280;21214;44.912;8.204;2023-02-18T08:20:51;100963.13;;;3.70;100.00
35023;BME280;21214;44.912;8.204;2023-02-18T08:23:18;100960.16;;;3.78;100.00
35023;BME280;21214;44.912;8.204;2023-02-18T08:25:44;100962.78;;;3.98;100.00
35023;BME280;21214;44.912;8.204;2023-02-18T08:28:09;100965.81;;;4.07;100.00
35023;BME280;21214;44.912;8.204;2023-02-18T08:30:35;100969.59;;;4.21;100.00
35023;BME280;21214;44.912;8.204;2023-02-18T08:33:00;100963.69;;;4.36;100.00
35023;BME280;21214;44.912;8.204;2023-02-18T08:35:25;100958.03;;;4.45;100.00
35023;BME280;21214;44.912;8.204;2023-02-18T08:37:51;100959.19;;;4.58;100.00
35023;BME280;21214;44.912;8.204;2023-02-18T08:40:16;100963.84;;;4.70;100.00
35023;BME280;21214;44.912;8.204;2023-02-18T08:42:41;100964.25;;;4.80;100.00
35023;BME280;21214;44.912;8.204;2023-02-18T08:45:07;100952.53;;;4.88;100.00
35023;BME280;21214;44.912;8.204;2023-02-18T08:47:32;100953.50;;;4.86;100.00
35023;BME280;21214;44.912;8.204;2023-02-18T08:49:58;100953.59;;;5.02;100.00
35023;BME280;21214;44.912;8.204;2023-02-18T08:52:23;100955.00;;;5.09;100.00
35023;BME280;21214;44.912;8.204;2023-02-18T08:54:48;100955.28;;;5.21;100.00
35023;BME280;21214;44.912;8.204;2023-02-18T08:57:14;100942.81;;;5.26;100.00
35023;BME280;21214;44.912;8.204;2023-02-18T08:59:39;100948.03;;;5.26;100.00
35023;BME280;21214;44.912;8.204;2023-02-18T09:02:05;100944.69;;;5.42;100.00
35023;BME280;21214;44.912;8.204;2023-02-18T09:04:30;100953.22;;;5.45;100.00
35023;BME280;21214;44.912;8.204;2023-02-18T09:06:56;100948.16;;;5.59;100.00
35023;BME280;21214;44.912;8.204;2023-02-18T09:09:21;100949.72;;;5.79;100.00
35023;BME280;21214;44.912;8.204;2023-02-18T09:11:46;100945.59;;;5.92;100.00
35023;BME280;21214;44.912;8.204;2023-02-18T09:14:12;100940.50;;;6.06;100.00
35023;BME280;21214;44.912;8.204;2023-02-18T09:16:38;100942.22;;;6.23;100.00
35023;BME280;21214;44.912;8.204;2023-02-18T09:19:04;100946.28;;;6.29;100.00
35023;BME280;21214;44.912;8.204;2023-02-18T09:21:29;100931.59;;;6.42;100.00
35023;BME280;21214;44.912;8.204;2023-02-18T09:23:55;100934.47;;;6.53;100.00
35023;BME280;21214;44.912;8.204;2023-02-18T09:26:21;100933.63;;;6.68;100.00
35023;BME280;21214;44.912;8.204;2023-02-18T09:28:51;100931.09;;;6.82;100.00
35023;BME280;21214;44.912;8.204;2023-02-18T09:31:17;100931.34;;;6.93;100.00
35023;BME280;21214;44.912;8.204;2023-02-18T09:33:44;100929.81;;;7.05;100.00
35023;BME280;21214;44.912;8.204;2023-02-18T09:36:10;100931.81;;;7.16;100.00
35023;BME280;21214;44.912;8.204;2023-02-18T09:38:35;100926.22;;;7.22;100.00
35023;BME280;21214;44.912;8.204;2023-02-18T09:41:02;100926.16;;;7.37;100.00
35023;BME280;21214;44.912;8.204;2023-02-18T09:43:29;100928.91;;;7.50;100.00
35023;BME280;21214;44.912;8.204;2023-02-18T09:45:56;100920.31;;;7.62;100.00
35023;BME280;21214;44.912;8.204;2023-02-18T09:48:33;100915.09;;;7.76;100.00
35023;BME280;21214;44.912;8.204;2023-02-18T09:51:00;100926.53;;;7.90;100.00
35023;BME280;21214;44.912;8.204;2023-02-18T09:53:25;100919.81;;;8.00;100.00
35023;BME280;21214;44.912;8.204;2023-02-18T09:55:51;100917.38;;;8.11;100.00
35023;BME280;21214;44.912;8.204;2023-02-18T09:58:21;100912.28;;;8.22;100.00
35023;BME280;21214;44.912;8.204;2023-02-18T10:00:48;100915.13;;;8.33;100.00
35023;BME280;21214;44.912;8.204;2023-02-18T10:03:19;100912.69;;;8.44;100.00
35023;BME280;21214;44.912;8.204;2023-02-18T10:06:32;100911.06;;;8.56;100.00
35023;BME280;21214;44.912;8.204;2023-02-18T10:08:36;100899.97;;;8.65;100.00
35023;BME280;21214;44.912;8.204;2023-02-18T10:11:02;100894.00;;;8.76;100.00
35023;BME280;21214;44.912;8.204;2023-02-18T10:13:28;100895.09;;;8.86;100.00
35023;BME280;21214;44.912;8.204;2023-02-18T10:15:54;100889.25;;;8.95;100.00
35023;BME280;21214;44.912;8.204;2023-02-18T10:18:38;100885.16;;;9.03;100.00
35023;BME280;21214;44.912;8.204;2023-02-18T10:21:08;100883.50;;;9.15;100.00
35023;BME280;21214;44.912;8.204;2023-02-18T10:23:35;100872.16;;;9.27;100.00
35023;BME280;21214;44.912;8.204;2023-02-18T10:26:02;100873.03;;;9.40;100.00
35023;BME280;21214;44.912;8.204;2023-02-18T10:28:30;100870.69;;;9.49;100.00
35023;BME280;21214;44.912;8.204;2023-02-18T10:31:00;100869.16;;;9.59;100.00
35023;BME280;21214;44.912;8.204;2023-02-18T10:36:25;100863.47;;;9.77;100.00
35023;BME280;21214;44.912;8.204;2023-02-18T10:39:15;100857.63;;;9.85;100.00
35023;BME280;21214;44.912;8.204;2023-02-18T10:47:04;100853.81;;;10.14;100.00
35023;BME280;21214;44.912;8.204;2023-02-18T10:51:59;100854.13;;;10.35;100.00
35023;BME280;21214;44.912;8.204;2023-02-18T10:54:27;100843.00;;;10.43;100.00
35023;BME280;21214;44.912;8.204;2023-02-18T10:57:14;100843.41;;;10.49;100.00
35023;BME280;21214;44.912;8.204;2023-02-18T10:59:45;100842.75;;;10.58;100.00
35023;BME280;21214;44.912;8.204;2023-02-18T11:02:18;100840.56;;;10.76;100.00
35023;BME280;21214;44.912;8.204;2023-02-18T11:04:44;100828.66;;;10.94;100.00
35023;BME280;21214;44.912;8.204;2023-02-18T11:07:13;100827.72;;;11.06;100.00
35023;BME280;21214;44.912;8.204;2023-02-18T11:09:51;100827.06;;;11.27;100.00
35023;BME280;21214;44.912;8.204;2023-02-18T11:14:44;100818.69;;;11.55;100.00
35023;BME280;21214;44.912;8.204;2023-02-18T11:17:20;100812.00;;;11.73;100.00
35023;BME280;21214;44.912;8.204;2023-02-18T11:19:56;100815.28;;;11.88;100.00
35023;BME280;21214;44.912;8.204;2023-02-18T11:22:27;100812.75;;;11.98;100.00
35023;BME280;21214;44.912;8.204;2023-02-18T11:24:56;100807.81;;;12.04;100.00
35023;BME280;21214;44.912;8.204;2023-02-18T11:27:23;100799.47;;;12.20;100.00
35023;BME280;21214;44.912;8.204;2023-02-18T11:29:53;100797.78;;;12.30;100.00
35023;BME280;21214;44.912;8.204;2023-02-18T11:32:20;100783.81;;;12.39;100.00
35023;BME280;21214;44.912;8.204;2023-02-18T11:34:45;100780.66;;;12.45;100.00
35023;BME280;21214;44.912;8.204;2023-02-18T11:37:12;100770.16;;;12.55;100.00
35023;BME280;21214;44.912;8.204;2023-02-18T11:39:42;100762.03;;;12.67;100.00
35023;BME280;21214;44.912;8.204;2023-02-18T11:42:11;100755.16;;;12.76;100.00
35023;BME280;21214;44.912;8.204;2023-02-18T11:44:41;100752.94;;;12.81;100.00
35023;BME280;21214;44.912;8.204;2023-02-18T11:49:39;100743.66;;;13.07;100.00
35023;BME280;21214;44.912;8.204;2023-02-18T11:52:18;100742.34;;;13.13;100.00
35023;BME280;21214;44.912;8.204;2023-02-18T11:54:57;100725.41;;;13.25;100.00
35023;BME280;21214;44.912;8.204;2023-02-18T11:57:23;100724.59;;;13.34;100.00
35023;BME280;21214;44.912;8.204;2023-02-18T11:59:50;100730.97;;;13.52;100.00
35023;BME280;21214;44.912;8.204;2023-02-18T12:02:29;100722.19;;;13.62;100.00
35023;BME280;21214;44.912;8.204;2023-02-18T12:05:13;100715.13;;;13.72;100.00
35023;BME280;21214;44.912;8.204;2023-02-18T12:07:43;100712.91;;;13.77;100.00
35023;BME280;21214;44.912;8.204;2023-02-18T12:10:11;100706.91;;;13.84;100.00
35023;BME280;21214;44.912;8.204;2023-02-18T12:15:07;100703.63;;;14.11;100.00
35023;BME280;21214;44.912;8.204;2023-02-18T12:17:39;100695.81;;;14.19;100.00
35023;BME280;21214;44.912;8.204;2023-02-18T12:25:21;100671.81;;;14.40;100.00
35023;BME280;21214;44.912;8.204;2023-02-18T12:27:51;100670.16;;;14.49;100.00
35023;BME280;21214;44.912;8.204;2023-02-18T12:40:23;100659.00;;;15.01;98.00
35023;BME280;21214;44.912;8.204;2023-02-18T12:48:14;100640.28;;;15.30;95.73
35023;BME280;21214;44.912;8.204;2023-02-18T13:01:09;100620.25;;;15.63;92.64
35023;BME280;21214;44.912;8.204;2023-02-18T13:14:32;100601.56;;;16.26;84.60
35023;BME280;21214;44.912;8.204;2023-02-18T13:17:01;100605.13;;;16.34;84.63
35023;BME280;21214;44.912;8.204;2023-02-18T13:19:29;100595.91;;;16.47;83.75
35023;BME280;21214;44.912;8.204;2023-02-18T13:22:01;100594.81;;;16.57;82.47
35023;BME280;21214;44.912;8.204;2023-02-18T13:24:35;100588.88;;;16.63;82.48
35023;BME280;21214;44.912;8.204;2023-02-18T13:27:06;100579.59;;;16.67;81.95
35023;BME280;21214;44.912;8.204;2023-02-18T13:29:34;100583.34;;;16.83;81.30
35023;BME280;21214;44.912;8.204;2023-02-18T13:37:09;100564.78;;;16.99;80.13
35023;BME280;21214;44.912;8.204;2023-02-18T13:39:37;100561.81;;;17.02;80.16
35023;BME280;21214;44.912;8.204;2023-02-18T13:47:15;100561.53;;;17.21;79.04
35023;BME280;21214;44.912;8.204;2023-02-18T13:49:57;100558.50;;;17.16;77.80
35023;BME280;21214;44.912;8.204;2023-02-18T13:52:23;100555.53;;;17.19;77.16
35023;BME280;21214;44.912;8.204;2023-02-18T13:54:48;100543.84;;;17.20;77.11
35023;BME280;21214;44.912;8.204;2023-02-18T13:57:21;100542.00;;;17.12;78.03
35023;BME280;21214;44.912;8.204;2023-02-18T14:09:49;100537.44;;;16.45;81.80
35023;BME280;21214;44.912;8.204;2023-02-18T14:14:40;100534.94;;;16.18;82.85
35023;BME280;21214;44.912;8.204;2023-02-18T14:19:53;100540.75;;;15.95;85.17
35023;BME280;21214;44.912;8.204;2023-02-18T14:24:54;100541.19;;;15.73;86.95
35023;BME280;21214;44.912;8.204;2023-02-18T14:27:21;100545.47;;;15.66;87.64
35023;BME280;21214;44.912;8.204;2023-02-18T14:29:48;100536.56;;;15.57;88.69
35023;BME280;21214;44.912;8.204;2023-02-18T14:32:15;100539.53;;;15.45;89.29
35023;BME280;21214;44.912;8.204;2023-02-18T14:34:50;100539.47;;;15.37;89.65
35023;BME280;21214;44.912;8.204;2023-02-18T14:39:55;100529.19;;;15.24;90.37
35023;BME280;21214;44.912;8.204;2023-02-18T14:50:11;100523.28;;;15.03;90.05
35023;BME280;21214;44.912;8.204;2023-02-18T14:52:39;100528.06;;;14.99;90.29
35023;BME280;21214;44.912;8.204;2023-02-18T14:55:10;100527.66;;;14.94;90.78
35023;BME280;21214;44.912;8.204;2023-02-18T14:57:42;100519.31;;;14.89;90.82
35023;BME280;21214;44.912;8.204;2023-02-18T15:00:14;100522.94;;;14.88;91.25
35023;BME280;21214;44.912;8.204;2023-02-18T15:02:40;100515.94;;;14.87;89.87